sensor_id;sensor_type;location;lat;lon;timestamp;P1;durP1;ratioP1;P2;durP2;ratioP2
78131;SDS011;67381;47.672;9.380;2023-06-22T00:02:23;12.05;;;4.40;;
78131;SDS011;67381;47.672;9.380;2023-06-22T00:04:50;14.32;;;4.57;;
78131;SDS011;67381;47.672;9.380;2023-06-22T00:07:17;12.77;;;4.32;;
78131;SDS011;67381;47.672;9.380;2023-06-22T00:09:45;9.18;;;4.22;;
78131;SDS011;67381;47.672;9.380;2023-06-22T00:12:12;9.60;;;4.03;;
78131;SDS011;67381;47.672;9.380;2023-06-22T00:14:39;7.88;;;3.85;;
78131;SDS011;67381;47.672;9.380;2023-06-22T00:17:07;14.50;;;5.38;;
78131;SDS011;67381;47.672;9.380;2023-06-22T00:19:34;8.07;;;4.20;;
78131;SDS011;67381;47.672;9.380;2023-06-22T00:22:02;11.65;;;4.57;;
78131;SDS011;67381;47.672;9.380;2023-06-22T00:24:30;11.63;;;4.97;;
78131;SDS011;67381;47.672;9.380;2023-06-22T00:26:57;12.60;;;4.30;;
78131;SDS011;67381;47.672;9.380;2023-06-22T00:29:25;9.98;;;4.10;;
78131;SDS011;67381;47.672;9.380;2023-06-22T00:31:55;7.07;;;3.95;;
78131;SDS011;67381;47.672;9.380;2023-06-22T00:34:23;15.57;;;4.80;;
78131;SDS011;67381;47.672;9.380;2023-06-22T00:36:50;13.70;;;4.20;;
78131;SDS011;67381;47.672;9.380;2023-06-22T00:39:18;9.70;;;4.57;;
78131;SDS011;67381;47.672;9.380;2023-06-22T00:41:46;10.35;;;4.75;;
78131;SDS011;67381;47.672;9.380;2023-06-22T00:44:13;11.52;;;4.40;;
78131;SDS011;67381;47.672;9.380;2023-06-22T00:46:40;11.40;;;4.50;;
78131;SDS011;67381;47.672;9.380;2023-06-22T00:49:08;14.20;;;4.85;;
78131;SDS011;67381;47.672;9.380;2023-06-22T00:51:36;11.05;;;4.97;;
78131;SDS011;67381;47.672;9.380;2023-06-22T00:54:05;8.73;;;4.05;;
78131;SDS011;67381;47.672;9.380;2023-06-22T00:56:33;12.95;;;4.78;;
78131;SDS011;67381;47.672;9.380;2023-06-22T00:59:03;10.07;;;4.53;;
78131;SDS011;67381;47.672;9.380;2023-06-22T01:01:30;13.15;;;5.07;;
78131;SDS011;67381;47.672;9.380;2023-06-22T01:03:58;9.45;;;4.57;;
78131;SDS011;67381;47.672;9.380;2023-06-22T01:06:34;13.52;;;4.63;;
78131;SDS011;67381;47.672;9.380;2023-06-22T01:09:06;9.27;;;4.20;;
78131;SDS011;67381;47.672;9.380;2023-06-22T01:11:40;12.20;;;5.00;;
78131;SDS011;67381;47.672;9.380;2023-06-22T01:14:14;12.77;;;4.60;;
78131;SDS011;67381;47.672;9.380;2023-06-22T01:16:45;13.05;;;5.45;;
78131;SDS011;67381;47.672;9.380;2023-06-22T01:22:02;15.73;;;5.20;;
78131;SDS011;67381;47.672;9.380;2023-06-22T01:24:41;14.48;;;5.80;;
78131;SDS011;67381;47.672;9.380;2023-06-22T01:29:58;14.15;;;5.30;;
78131;SDS011;67381;47.672;9.380;2023-06-22T01:32:30;16.00;;;5.63;;
78131;SDS011;67381;47.672;9.380;2023-06-22T01:35:00;12.02;;;5.35;;
78131;SDS011;67381;47.672;9.380;2023-06-22T01:37:30;15.55;;;5.40;;
78131;SDS011;67381;47.672;9.380;2023-06-22T01:40:00;11.57;;;4.70;;
78131;SDS011;67381;47.672;9.380;2023-06-22T01:42:28;9.77;;;4.95;;
78131;SDS011;67381;47.672;9.380;2023-06-22T01:44:55;11.35;;;4.70;;
78131;SDS011;67381;47.672;9.380;2023-06-22T01:47:23;11.75;;;4.68;;
78131;SDS011;67381;47.672;9.380;2023-06-22T01:49:51;11.85;;;4.97;;
78131;SDS011;67381;47.672;9.380;2023-06-22T01:52:20;11.95;;;5.07;;
78131;SDS011;67381;47.672;9.380;2023-06-22T01:54:50;14.68;;;5.53;;
78131;SDS011;67381;47.672;9.380;2023-06-22T01:57:18;11.93;;;4.45;;
78131;SDS011;67381;47.672;9.380;2023-06-22T01:59:54;11.07;;;5.00;;
78131;SDS011;67381;47.672;9.380;2023-06-22T02:02:25;16.17;;;4.72;;
78131;SDS011;67381;47.672;9.380;2023-06-22T02:05:02;11.32;;;5.20;;
78131;SDS011;67381;47.672;9.380;2023-06-22T02:08:17;11.48;;;5.05;;
78131;SDS011;67381;47.672;9.380;2023-06-22T02:10:25;12.48;;;4.95;;
78131;SDS011;67381;47.672;9.380;2023-06-22T02:12:57;12.25;;;4.90;;
78131;SDS011;67381;47.672;9.380;2023-06-22T02:15:25;15.43;;;5.30;;
78131;SDS011;67381;47.672;9.380;2023-06-22T02:17:54;12.35;;;4.68;;
78131;SDS011;67381;47.672;9.380;2023-06-22T02:20:23;12.50;;;4.72;;
78131;SDS011;67381;47.672;9.380;2023-06-22T02:22:51;12.38;;;5.22;;
78131;SDS011;67381;47.672;9.380;2023-06-22T02:25:18;8.57;;;4.90;;
78131;SDS011;67381;47.672;9.380;2023-06-22T02:27:46;11.98;;;4.07;;
78131;SDS011;67381;47.672;9.380;2023-06-22T02:30:16;10.68;;;4.50;;
78131;SDS011;67381;47.672;9.380;2023-06-22T02:32:44;11.60;;;4.85;;
78131;SDS011;67381;47.672;9.380;2023-06-22T02:35:15;10.00;;;4.70;;
78131;SDS011;67381;47.672;9.380;2023-06-22T02:37:42;11.52;;;4.72;;
78131;SDS011;67381;47.672;9.380;2023-06-22T02:40:10;12.85;;;5.55;;
78131;SDS011;67381;47.672;9.380;2023-06-22T02:42:37;11.32;;;5.53;;
78131;SDS011;67381;47.672;9.380;2023-06-22T02:45:06;12.88;;;4.47;;
78131;SDS011;67381;47.672;9.380;2023-06-22T02:47:34;11.30;;;4.80;;
78131;SDS011;67381;47.672;9.380;2023-06-22T02:50:02;10.65;;;5.07;;
78131;SDS011;67381;47.672;9.380;2023-06-22T02:52:33;11.73;;;4.57;;
78131;SDS011;67381;47.672;9.380;2023-06-22T02:55:01;10.43;;;4.75;;
78131;SDS011;67381;47.672;9.380;2023-06-22T02:57:29;11.73;;;4.55;;
78131;SDS011;67381;47.672;9.380;2023-06-22T02:59:56;9.35;;;3.85;;
78131;SDS011;67381;47.672;9.380;2023-06-22T03:02:24;12.43;;;4.78;;
78131;SDS011;67381;47.672;9.380;2023-06-22T03:04:53;13.40;;;5.40;;
78131;SDS011;67381;47.672;9.380;2023-06-22T03:07:21;8.27;;;4.30;;
78131;SDS011;67381;47.672;9.380;2023-06-22T03:09:50;9.88;;;4.28;;
78131;SDS011;67381;47.672;9.380;2023-06-22T03:12:19;7.47;;;4.07;;
78131;SDS011;67381;47.672;9.380;2023-06-22T03:14:55;16.52;;;4.88;;
78131;SDS011;67381;47.672;9.380;2023-06-22T03:17:22;9.30;;;4.28;;
78131;SDS011;67381;47.672;9.380;2023-06-22T03:19:50;12.32;;;4.47;;
78131;SDS011;67381;47.672;9.380;2023-06-22T03:22:17;11.70;;;4.65;;
78131;SDS011;67381;47.672;9.380;2023-06-22T03:24:45;11.60;;;4.35;;
78131;SDS011;67381;47.672;9.380;2023-06-22T03:27:12;9.00;;;4.45;;
78131;SDS011;67381;47.672;9.380;2023-06-22T03:29:40;11.80;;;4.72;;
78131;SDS011;67381;47.672;9.380;2023-06-22T03:32:07;9.80;;;4.95;;
78131;SDS011;67381;47.672;9.380;2023-06-22T03:34:35;13.48;;;4.75;;
78131;SDS011;67381;47.672;9.380;2023-06-22T03:37:05;10.73;;;4.80;;
78131;SDS011;67381;47.672;9.380;2023-06-22T03:39:32;13.88;;;4.97;;
78131;SDS011;67381;47.672;9.380;2023-06-22T03:42:00;13.27;;;5.43;;
78131;SDS011;67381;47.672;9.380;2023-06-22T03:44:27;7.28;;;4.53;;
78131;SDS011;67381;47.672;9.380;2023-06-22T03:46:54;11.90;;;5.10;;
78131;SDS011;67381;47.672;9.380;2023-06-22T03:49:22;8.90;;;4.53;;
78131;SDS011;67381;47.672;9.380;2023-06-22T03:51:49;15.82;;;5.35;;
78131;SDS011;67381;47.672;9.380;2023-06-22T03:54:17;11.10;;;4.28;;
78131;SDS011;67381;47.672;9.380;2023-06-22T03:56:44;13.10;;;5.32;;
78131;SDS011;67381;47.672;9.380;2023-06-22T03:59:11;10.48;;;4.30;;
78131;SDS011;67381;47.672;9.380;2023-06-22T04:01:39;12.75;;;5.82;;
78131;SDS011;67381;47.672;9.380;2023-06-22T04:04:06;11.98;;;4.93;;
78131;SDS011;67381;47.672;9.380;2023-06-22T04:06:34;10.65;;;4.95;;
78131;SDS011;67381;47.672;9.380;2023-06-22T04:09:01;8.82;;;4.15;;
78131;SDS011;67381;47.672;9.380;2023-06-22T04:11:29;10.65;;;4.70;;
78131;SDS011;67381;47.672;9.380;2023-06-22T04:13:56;11.43;;;5.22;;
78131;SDS011;67381;47.672;9.380;2023-06-22T04:16:24;11.52;;;5.18;;
78131;SDS011;67381;47.672;9.380;2023-06-22T04:18:51;8.65;;;5.55;;
78131;SDS011;67381;47.672;9.380;2023-06-22T04:21:19;10.82;;;5.28;;
78131;SDS011;67381;47.672;9.380;2023-06-22T04:23:49;10.55;;;4.07;;
78131;SDS011;67381;47.672;9.380;2023-06-22T04:26:16;11.60;;;4.65;;
78131;SDS011;67381;47.672;9.380;2023-06-22T04:28:43;12.68;;;4.82;;
78131;SDS011;67381;47.672;9.380;2023-06-22T04:31:17;10.70;;;5.07;;
78131;SDS011;67381;47.672;9.380;2023-06-22T04:33:46;15.40;;;4.65;;
78131;SDS011;67381;47.672;9.380;2023-06-22T04:36:13;11.55;;;4.70;;
78131;SDS011;67381;47.672;9.380;2023-06-22T04:38:41;10.70;;;4.45;;
78131;SDS011;67381;47.672;9.380;2023-06-22T04:41:09;10.88;;;5.03;;
78131;SDS011;67381;47.672;9.380;2023-06-22T04:43:41;9.98;;;4.90;;
78131;SDS011;67381;47.672;9.380;2023-06-22T04:46:08;13.70;;;5.38;;
78131;SDS011;67381;47.672;9.380;2023-06-22T04:48:35;11.60;;;4.80;;
78131;SDS011;67381;47.672;9.380;2023-06-22T04:51:03;11.60;;;5.30;;
78131;SDS011;67381;47.672;9.380;2023-06-22T04:53:31;12.10;;;5.30;;
78131;SDS011;67381;47.672;9.380;2023-06-22T04:55:59;12.18;;;5.90;;
78131;SDS011;67381;47.672;9.380;2023-06-22T04:58:26;12.70;;;5.57;;
78131;SDS011;67381;47.672;9.380;2023-06-22T05:00:59;12.63;;;4.78;;
78131;SDS011;67381;47.672;9.380;2023-06-22T05:03:26;13.90;;;5.45;;
78131;SDS011;67381;47.672;9.380;2023-06-22T05:05:54;14.65;;;5.40;;
78131;SDS011;67381;47.672;9.380;2023-06-22T05:08:21;11.27;;;5.18;;
78131;SDS011;67381;47.672;9.380;2023-06-22T05:10:53;14.55;;;6.10;;
78131;SDS011;67381;47.672;9.380;2023-06-22T05:13:29;12.38;;;5.47;;
78131;SDS011;67381;47.672;9.380;2023-06-22T05:15:57;13.85;;;4.90;;
78131;SDS011;67381;47.672;9.380;2023-06-22T05:18:28;11.45;;;5.20;;
78131;SDS011;67381;47.672;9.380;2023-06-22T05:20:57;11.05;;;4.78;;
78131;SDS011;67381;47.672;9.380;2023-06-22T05:23:25;10.35;;;4.38;;
78131;SDS011;67381;47.672;9.380;2023-06-22T05:25:52;11.32;;;5.45;;
78131;SDS011;67381;47.672;9.380;2023-06-22T05:28:21;12.13;;;4.78;;
78131;SDS011;67381;47.672;9.380;2023-06-22T05:30:50;10.73;;;4.80;;
78131;SDS011;67381;47.672;9.380;2023-06-22T05:33:17;11.27;;;4.70;;
78131;SDS011;67381;47.672;9.380;2023-06-22T05:35:44;11.82;;;5.45;;
78131;SDS011;67381;47.672;9.380;2023-06-22T05:38:12;9.63;;;4.47;;
78131;SDS011;67381;47.672;9.380;2023-06-22T05:40:39;8.82;;;5.18;;
78131;SDS011;67381;47.672;9.380;2023-06-22T05:43:07;12.00;;;5.65;;
78131;SDS011;67381;47.672;9.380;2023-06-22T05:45:34;11.68;;;5.78;;
78131;SDS011;67381;47.672;9.380;2023-06-22T05:48:01;13.50;;;5.47;;
78131;SDS011;67381;47.672;9.380;2023-06-22T05:50:29;14.52;;;7.00;;
78131;SDS011;67381;47.672;9.380;2023-06-22T05:52:59;9.13;;;5.00;;
78131;SDS011;67381;47.672;9.380;2023-06-22T05:55:26;13.93;;;5.32;;
78131;SDS011;67381;47.672;9.380;2023-06-22T05:57:53;12.98;;;5.63;;
78131;SDS011;67381;47.672;9.380;2023-06-22T06:00:21;10.80;;;5.75;;
78131;SDS011;67381;47.672;9.380;2023-06-22T06:02:49;11.65;;;5.38;;
78131;SDS011;67381;47.672;9.380;2023-06-22T06:05:17;13.27;;;5.10;;
78131;SDS011;67381;47.672;9.380;2023-06-22T06:07:45;10.00;;;4.78;;
78131;SDS011;67381;47.672;9.380;2023-06-22T06:10:13;10.00;;;5.22;;
78131;SDS011;67381;47.672;9.380;2023-06-22T06:12:40;13.63;;;5.25;;
78131;SDS011;67381;47.672;9.380;2023-06-22T06:15:08;14.25;;;5.55;;
78131;SDS011;67381;47.672;9.380;2023-06-22T06:17:45;13.65;;;5.55;;
78131;SDS011;67381;47.672;9.380;2023-06-22T06:20:15;10.20;;;5.50;;
78131;SDS011;67381;47.672;9.380;2023-06-22T06:22:46;14.70;;;5.55;;
78131;SDS011;67381;47.672;9.380;2023-06-22T06:25:13;11.80;;;5.57;;
78131;SDS011;67381;47.672;9.380;2023-06-22T06:27:46;12.30;;;5.88;;
78131;SDS011;67381;47.672;9.380;2023-06-22T06:30:14;12.75;;;5.88;;
78131;SDS011;67381;47.672;9.380;2023-06-22T06:32:42;10.48;;;5.20;;
78131;SDS011;67381;47.672;9.380;2023-06-22T06:35:12;14.05;;;5.30;;
78131;SDS011;67381;47.672;9.380;2023-06-22T06:37:41;12.02;;;4.40;;
78131;SDS011;67381;47.672;9.380;2023-06-22T06:40:13;9.00;;;4.60;;
78131;SDS011;67381;47.672;9.380;2023-06-22T06:42:45;11.85;;;4.70;;
78131;SDS011;67381;47.672;9.380;2023-06-22T06:45:20;9.98;;;4.93;;
78131;SDS011;67381;47.672;9.380;2023-06-22T06:47:50;10.50;;;4.80;;
78131;SDS011;67381;47.672;9.380;2023-06-22T06:50:18;10.80;;;4.93;;
78131;SDS011;67381;47.672;9.380;2023-06-22T06:52:46;12.02;;;6.32;;
78131;SDS011;67381;47.672;9.380;2023-06-22T06:55:13;9.05;;;4.80;;
78131;SDS011;67381;47.672;9.380;2023-06-22T06:57:41;10.50;;;4.93;;
78131;SDS011;67381;47.672;9.380;2023-06-22T07:00:10;12.38;;;5.60;;
78131;SDS011;67381;47.672;9.380;2023-06-22T07:02:41;13.02;;;6.13;;
78131;SDS011;67381;47.672;9.380;2023-06-22T07:05:10;13.68;;;6.00;;
78131;SDS011;67381;47.672;9.380;2023-06-22T07:07:38;15.27;;;5.82;;
78131;SDS011;67381;47.672;9.380;2023-06-22T07:10:09;11.80;;;5.63;;
78131;SDS011;67381;47.672;9.380;2023-06-22T07:12:37;15.30;;;6.28;;
78131;SDS011;67381;47.672;9.380;2023-06-22T07:15:05;11.98;;;5.28;;
78131;SDS011;67381;47.672;9.380;2023-06-22T07:17:37;13.52;;;5.70;;
78131;SDS011;67381;47.672;9.380;2023-06-22T07:20:04;12.25;;;6.03;;
78131;SDS011;67381;47.672;9.380;2023-06-22T07:22:39;14.85;;;6.95;;
78131;SDS011;67381;47.672;9.380;2023-06-22T07:25:08;14.20;;;6.32;;
78131;SDS011;67381;47.672;9.380;2023-06-22T07:27:36;15.95;;;6.82;;
78131;SDS011;67381;47.672;9.380;2023-06-22T07:30:10;13.95;;;7.53;;
78131;SDS011;67381;47.672;9.380;2023-06-22T07:32:39;15.85;;;7.78;;
78131;SDS011;67381;47.672;9.380;2023-06-22T07:35:07;15.82;;;7.10;;
78131;SDS011;67381;47.672;9.380;2023-06-22T07:37:34;12.60;;;7.65;;
78131;SDS011;67381;47.672;9.380;2023-06-22T07:40:02;14.73;;;7.28;;
78131;SDS011;67381;47.672;9.380;2023-06-22T07:42:33;15.10;;;6.38;;
78131;SDS011;67381;47.672;9.380;2023-06-22T07:45:00;12.77;;;7.38;;
78131;SDS011;67381;47.672;9.380;2023-06-22T07:47:30;15.32;;;7.82;;
78131;SDS011;67381;47.672;9.380;2023-06-22T07:49:58;17.10;;;7.72;;
78131;SDS011;67381;47.672;9.380;2023-06-22T07:52:28;15.60;;;7.70;;
78131;SDS011;67381;47.672;9.380;2023-06-22T07:54:56;18.58;;;8.40;;
78131;SDS011;67381;47.672;9.380;2023-06-22T07:57:26;18.90;;;7.93;;
78131;SDS011;67381;47.672;9.380;2023-06-22T08:00:00;18.60;;;7.65;;
78131;SDS011;67381;47.672;9.380;2023-06-22T08:02:39;15.90;;;7.63;;
78131;SDS011;67381;47.672;9.380;2023-06-22T08:05:10;16.85;;;7.53;;
78131;SDS011;67381;47.672;9.380;2023-06-22T08:07:41;16.77;;;7.90;;
78131;SDS011;67381;47.672;9.380;2023-06-22T08:10:12;15.05;;;8.35;;
78131;SDS011;67381;47.672;9.380;2023-06-22T08:12:40;14.65;;;8.90;;
78131;SDS011;67381;47.672;9.380;2023-06-22T08:15:07;13.02;;;8.20;;
78131;SDS011;67381;47.672;9.380;2023-06-22T08:17:36;17.83;;;8.45;;
78131;SDS011;67381;47.672;9.380;2023-06-22T08:20:05;20.95;;;8.07;;
78131;SDS011;67381;47.672;9.380;2023-06-22T08:22:40;18.17;;;8.10;;
78131;SDS011;67381;47.672;9.380;2023-06-22T08:25:08;17.02;;;8.07;;
78131;SDS011;67381;47.672;9.380;2023-06-22T08:27:36;18.60;;;7.68;;
78131;SDS011;67381;47.672;9.380;2023-06-22T08:30:04;13.02;;;7.93;;
78131;SDS011;67381;47.672;9.380;2023-06-22T08:32:34;15.30;;;8.15;;
78131;SDS011;67381;47.672;9.380;2023-06-22T08:35:02;16.73;;;8.55;;
78131;SDS011;67381;47.672;9.380;2023-06-22T08:37:30;19.48;;;8.73;;
78131;SDS011;67381;47.672;9.380;2023-06-22T08:40:04;15.07;;;8.15;;
78131;SDS011;67381;47.672;9.380;2023-06-22T08:42:34;20.33;;;7.60;;
78131;SDS011;67381;47.672;9.380;2023-06-22T08:45:02;17.60;;;8.30;;
78131;SDS011;67381;47.672;9.380;2023-06-22T08:47:30;14.18;;;7.60;;
78131;SDS011;67381;47.672;9.380;2023-06-22T08:49:58;17.77;;;8.55;;
78131;SDS011;67381;47.672;9.380;2023-06-22T08:52:25;19.67;;;8.13;;
78131;SDS011;67381;47.672;9.380;2023-06-22T08:54:53;16.10;;;7.30;;
78131;SDS011;67381;47.672;9.380;2023-06-22T08:57:20;14.00;;;8.70;;
78131;SDS011;67381;47.672;9.380;2023-06-22T08:59:48;14.23;;;7.13;;
78131;SDS011;67381;47.672;9.380;2023-06-22T09:02:16;15.27;;;7.80;;
78131;SDS011;67381;47.672;9.380;2023-06-22T09:04:44;15.57;;;7.05;;
78131;SDS011;67381;47.672;9.380;2023-06-22T09:07:11;19.05;;;7.43;;
78131;SDS011;67381;47.672;9.380;2023-06-22T09:09:38;16.80;;;7.57;;
78131;SDS011;67381;47.672;9.380;2023-06-22T09:12:06;14.45;;;7.60;;
78131;SDS011;67381;47.672;9.380;2023-06-22T09:14:35;28.27;;;8.07;;
78131;SDS011;67381;47.672;9.380;2023-06-22T09:17:02;16.13;;;7.40;;
78131;SDS011;67381;47.672;9.380;2023-06-22T09:19:30;13.85;;;7.35;;
78131;SDS011;67381;47.672;9.380;2023-06-22T09:21:57;15.77;;;8.27;;
78131;SDS011;67381;47.672;9.380;2023-06-22T09:24:25;19.83;;;9.23;;
78131;SDS011;67381;47.672;9.380;2023-06-22T09:26:52;18.23;;;9.60;;
78131;SDS011;67381;47.672;9.380;2023-06-22T09:29:19;16.15;;;8.88;;
78131;SDS011;67381;47.672;9.380;2023-06-22T09:31:47;19.50;;;9.70;;
78131;SDS011;67381;47.672;9.380;2023-06-22T09:34:14;17.17;;;9.20;;
78131;SDS011;67381;47.672;9.380;2023-06-22T09:36:42;19.95;;;10.18;;
78131;SDS011;67381;47.672;9.380;2023-06-22T09:39:09;12.93;;;8.25;;
78131;SDS011;67381;47.672;9.380;2023-06-22T09:41:36;15.88;;;7.78;;
78131;SDS011;67381;47.672;9.380;2023-06-22T09:44:04;15.50;;;8.20;;
78131;SDS011;67381;47.672;9.380;2023-06-22T09:46:31;16.13;;;7.93;;
78131;SDS011;67381;47.672;9.380;2023-06-22T09:48:59;14.60;;;7.80;;
78131;SDS011;67381;47.672;9.380;2023-06-22T09:51:26;16.88;;;7.40;;
78131;SDS011;67381;47.672;9.380;2023-06-22T09:53:53;15.45;;;7.15;;
78131;SDS011;67381;47.672;9.380;2023-06-22T09:56:21;15.20;;;6.97;;
78131;SDS011;67381;47.672;9.380;2023-06-22T09:58:49;20.42;;;6.93;;
78131;SDS011;67381;47.672;9.380;2023-06-22T10:01:20;13.25;;;6.65;;
78131;SDS011;67381;47.672;9.380;2023-06-22T10:03:48;16.38;;;6.88;;
78131;SDS011;67381;47.672;9.380;2023-06-22T10:06:16;16.00;;;6.53;;
78131;SDS011;67381;47.672;9.380;2023-06-22T10:08:43;12.48;;;6.55;;
78131;SDS011;67381;47.672;9.380;2023-06-22T10:11:11;19.25;;;7.10;;
78131;SDS011;67381;47.672;9.380;2023-06-22T10:13:38;12.90;;;5.97;;
78131;SDS011;67381;47.672;9.380;2023-06-22T10:16:06;17.52;;;5.80;;
78131;SDS011;67381;47.672;9.380;2023-06-22T10:18:34;15.45;;;7.15;;
78131;SDS011;67381;47.672;9.380;2023-06-22T10:21:01;20.25;;;6.60;;
78131;SDS011;67381;47.672;9.380;2023-06-22T10:23:28;15.98;;;7.82;;
78131;SDS011;67381;47.672;9.380;2023-06-22T10:25:56;13.98;;;7.65;;
78131;SDS011;67381;47.672;9.380;2023-06-22T10:28:25;15.27;;;6.82;;
78131;SDS011;67381;47.672;9.380;2023-06-22T10:30:52;16.05;;;8.10;;
78131;SDS011;67381;47.672;9.380;2023-06-22T10:33:21;17.55;;;7.88;;
78131;SDS011;67381;47.672;9.380;2023-06-22T10:35:48;16.60;;;6.70;;
78131;SDS011;67381;47.672;9.380;2023-06-22T10:38:16;11.43;;;5.90;;
78131;SDS011;67381;47.672;9.380;2023-06-22T10:40:43;20.90;;;6.80;;
78131;SDS011;67381;47.672;9.380;2023-06-22T10:43:10;11.82;;;6.25;;
78131;SDS011;67381;47.672;9.380;2023-06-22T10:45:38;12.73;;;7.00;;
78131;SDS011;67381;47.672;9.380;2023-06-22T10:48:06;13.02;;;6.30;;
78131;SDS011;67381;47.672;9.380;2023-06-22T10:50:33;10.65;;;5.65;;
78131;SDS011;67381;47.672;9.380;2023-06-22T10:53:00;14.00;;;6.50;;
78131;SDS011;67381;47.672;9.380;2023-06-22T10:55:28;17.80;;;6.93;;
78131;SDS011;67381;47.672;9.380;2023-06-22T10:57:58;11.57;;;6.50;;
78131;SDS011;67381;47.672;9.380;2023-06-22T11:00:26;14.05;;;6.88;;
78131;SDS011;67381;47.672;9.380;2023-06-22T11:02:53;16.08;;;7.78;;
78131;SDS011;67381;47.672;9.380;2023-06-22T11:05:21;15.75;;;6.53;;
78131;SDS011;67381;47.672;9.380;2023-06-22T11:07:48;15.63;;;7.28;;
78131;SDS011;67381;47.672;9.380;2023-06-22T11:10:16;13.98;;;7.18;;
78131;SDS011;67381;47.672;9.380;2023-06-22T11:12:44;15.10;;;6.80;;
78131;SDS011;67381;47.672;9.380;2023-06-22T11:15:11;10.50;;;5.72;;
78131;SDS011;67381;47.672;9.380;2023-06-22T11:17:39;14.40;;;7.40;;
78131;SDS011;67381;47.672;9.380;2023-06-22T11:20:06;18.17;;;6.15;;
78131;SDS011;67381;47.672;9.380;2023-06-22T11:22:38;14.02;;;6.45;;
78131;SDS011;67381;47.672;9.380;2023-06-22T11:25:06;15.55;;;7.38;;
78131;SDS011;67381;47.672;9.380;2023-06-22T11:27:34;13.02;;;6.32;;
78131;SDS011;67381;47.672;9.380;2023-06-22T11:30:01;15.18;;;6.85;;
78131;SDS011;67381;47.672;9.380;2023-06-22T11:32:29;18.02;;;7.30;;
78131;SDS011;67381;47.672;9.380;2023-06-22T11:34:57;15.50;;;6.85;;
78131;SDS011;67381;47.672;9.380;2023-06-22T11:37:24;16.75;;;7.50;;
78131;SDS011;67381;47.672;9.380;2023-06-22T11:39:52;16.15;;;6.85;;
78131;SDS011;67381;47.672;9.380;2023-06-22T11:42:26;15.70;;;6.63;;
78131;SDS011;67381;47.672;9.380;2023-06-22T11:44:55;19.02;;;7.45;;
78131;SDS011;67381;47.672;9.380;2023-06-22T11:47:23;19.92;;;7.80;;
78131;SDS011;67381;47.672;9.380;2023-06-22T11:49:50;15.02;;;7.30;;
78131;SDS011;67381;47.672;9.380;2023-06-22T11:52:18;15.60;;;7.10;;
78131;SDS011;67381;47.672;9.380;2023-06-22T11:54:46;14.70;;;6.63;;
78131;SDS011;67381;47.672;9.380;2023-06-22T11:57:13;12.05;;;6.38;;
78131;SDS011;67381;47.672;9.380;2023-06-22T11:59:41;18.88;;;6.57;;
78131;SDS011;67381;47.672;9.380;2023-06-22T12:02:08;14.18;;;6.70;;
78131;SDS011;67381;47.672;9.380;2023-06-22T12:04:36;16.25;;;6.68;;
78131;SDS011;67381;47.672;9.380;2023-06-22T12:07:04;12.38;;;6.60;;
78131;SDS011;67381;47.672;9.380;2023-06-22T12:09:32;13.88;;;6.53;;
78131;SDS011;67381;47.672;9.380;2023-06-22T12:12:00;15.57;;;6.95;;
78131;SDS011;67381;47.672;9.380;2023-06-22T12:14:27;15.50;;;7.60;;
78131;SDS011;67381;47.672;9.380;2023-06-22T12:16:55;18.13;;;7.47;;
78131;SDS011;67381;47.672;9.380;2023-06-22T12:19:23;14.82;;;7.70;;
78131;SDS011;67381;47.672;9.380;2023-06-22T12:21:51;17.33;;;8.55;;
78131;SDS011;67381;47.672;9.380;2023-06-22T12:24:18;18.98;;;7.50;;
78131;SDS011;67381;47.672;9.380;2023-06-22T12:26:46;13.25;;;6.40;;
78131;SDS011;67381;47.672;9.380;2023-06-22T12:29:13;12.95;;;7.10;;
78131;SDS011;67381;47.672;9.380;2023-06-22T12:31:40;14.82;;;7.38;;
78131;SDS011;67381;47.672;9.380;2023-06-22T12:34:08;14.52;;;7.28;;
78131;SDS011;67381;47.672;9.380;2023-06-22T12:36:36;16.55;;;6.88;;
78131;SDS011;67381;47.672;9.380;2023-06-22T12:39:03;14.77;;;7.25;;
78131;SDS011;67381;47.672;9.380;2023-06-22T12:41:30;22.15;;;6.80;;
78131;SDS011;67381;47.672;9.380;2023-06-22T12:43:58;13.30;;;7.13;;
78131;SDS011;67381;47.672;9.380;2023-06-22T12:46:25;13.90;;;6.82;;
78131;SDS011;67381;47.672;9.380;2023-06-22T12:48:53;15.77;;;7.20;;
78131;SDS011;67381;47.672;9.380;2023-06-22T12:51:21;15.20;;;6.53;;
78131;SDS011;67381;47.672;9.380;2023-06-22T12:53:49;16.65;;;6.80;;
78131;SDS011;67381;47.672;9.380;2023-06-22T12:56:16;13.90;;;7.13;;
78131;SDS011;67381;47.672;9.380;2023-06-22T12:58:44;17.02;;;6.68;;
78131;SDS011;67381;47.672;9.380;2023-06-22T13:01:11;18.85;;;7.38;;
78131;SDS011;67381;47.672;9.380;2023-06-22T13:03:39;16.58;;;7.68;;
78131;SDS011;67381;47.672;9.380;2023-06-22T13:06:07;18.55;;;7.55;;
78131;SDS011;67381;47.672;9.380;2023-06-22T13:08:34;17.63;;;7.32;;
78131;SDS011;67381;47.672;9.380;2023-06-22T13:11:22;14.02;;;6.88;;
78131;SDS011;67381;47.672;9.380;2023-06-22T13:13:50;12.30;;;5.75;;
78131;SDS011;67381;47.672;9.380;2023-06-22T13:16:17;11.80;;;7.00;;
78131;SDS011;67381;47.672;9.380;2023-06-22T13:18:44;14.15;;;7.63;;
78131;SDS011;67381;47.672;9.380;2023-06-22T13:21:12;17.15;;;6.80;;
78131;SDS011;67381;47.672;9.380;2023-06-22T13:23:40;15.48;;;6.57;;
78131;SDS011;67381;47.672;9.380;2023-06-22T13:26:08;18.02;;;8.35;;
78131;SDS011;67381;47.672;9.380;2023-06-22T13:28:35;13.13;;;7.35;;
78131;SDS011;67381;47.672;9.380;2023-06-22T13:31:02;15.45;;;9.15;;
78131;SDS011;67381;47.672;9.380;2023-06-22T13:33:30;14.23;;;8.18;;
78131;SDS011;67381;47.672;9.380;2023-06-22T13:35:57;17.65;;;6.85;;
78131;SDS011;67381;47.672;9.380;2023-06-22T13:38:25;12.77;;;7.18;;
78131;SDS011;67381;47.672;9.380;2023-06-22T13:40:52;14.77;;;6.82;;
78131;SDS011;67381;47.672;9.380;2023-06-22T13:43:20;21.20;;;8.30;;
78131;SDS011;67381;47.672;9.380;2023-06-22T13:45:47;16.05;;;7.85;;
78131;SDS011;67381;47.672;9.380;2023-06-22T13:48:15;18.95;;;8.48;;
78131;SDS011;67381;47.672;9.380;2023-06-22T13:50:43;12.30;;;7.78;;
78131;SDS011;67381;47.672;9.380;2023-06-22T13:53:10;15.38;;;6.97;;
78131;SDS011;67381;47.672;9.380;2023-06-22T13:55:37;15.57;;;6.47;;
78131;SDS011;67381;47.672;9.380;2023-06-22T13:58:06;16.08;;;8.50;;
78131;SDS011;67381;47.672;9.380;2023-06-22T14:00:33;21.88;;;7.95;;
78131;SDS011;67381;47.672;9.380;2023-06-22T14:03:01;15.32;;;7.22;;
78131;SDS011;67381;47.672;9.380;2023-06-22T14:05:28;15.23;;;7.60;;
78131;SDS011;67381;47.672;9.380;2023-06-22T14:07:56;14.05;;;6.80;;
78131;SDS011;67381;47.672;9.380;2023-06-22T14:10:24;14.15;;;6.35;;
78131;SDS011;67381;47.672;9.380;2023-06-22T14:12:51;14.93;;;6.68;;
78131;SDS011;67381;47.672;9.380;2023-06-22T14:15:21;17.63;;;6.22;;
78131;SDS011;67381;47.672;9.380;2023-06-22T14:17:48;16.05;;;8.02;;
78131;SDS011;67381;47.672;9.380;2023-06-22T14:20:16;22.15;;;9.32;;
78131;SDS011;67381;47.672;9.380;2023-06-22T14:22:43;19.13;;;9.90;;
78131;SDS011;67381;47.672;9.380;2023-06-22T14:25:11;17.55;;;8.70;;
78131;SDS011;67381;47.672;9.380;2023-06-22T14:27:38;16.33;;;7.95;;
78131;SDS011;67381;47.672;9.380;2023-06-22T14:30:06;16.98;;;7.72;;
78131;SDS011;67381;47.672;9.380;2023-06-22T14:32:34;19.02;;;7.13;;
78131;SDS011;67381;47.672;9.380;2023-06-22T14:35:01;13.00;;;6.75;;
78131;SDS011;67381;47.672;9.380;2023-06-22T14:37:28;17.73;;;7.10;;
78131;SDS011;67381;47.672;9.380;2023-06-22T14:39:56;17.38;;;7.45;;
78131;SDS011;67381;47.672;9.380;2023-06-22T14:42:23;11.55;;;6.22;;
78131;SDS011;67381;47.672;9.380;2023-06-22T14:44:53;12.93;;;6.63;;
78131;SDS011;67381;47.672;9.380;2023-06-22T14:47:21;16.98;;;6.97;;
78131;SDS011;67381;47.672;9.380;2023-06-22T14:49:48;15.23;;;6.85;;